Time;durP1;ratioP1;P1;durP2;ratioP2;P2;SDS_P1;SDS_P2;PMS_P1;PMS_P2;Temp;Humidity;BMP_temperature;BMP_pressure;BME280_temperature;BME280_humidity;BME280_pressure;Samples;Min_cycle;Max_cycle;Signal;HPM_P1;HPM_P2
2023/01/26 00:08:47;;;;;;;131.23;42.43;;;1.30;99.90;;;;;;5021584;28;20434;-82
2023/01/26 00:18:42;;;;;;;136.33;42.47;;;1.70;99.90;;;;;;4963261;28;20427;-85
2023/01/26 00:24:49;;;;;;;122.30;42.87;;;1.60;99.90;;;;;;4961730;28;20433;-85
2023/01/26 00:30:44;;;;;;;130.27;42.13;;;1.60;99.90;;;;;;5001318;28;20435;-85
2023/01/26 00:34:15;;;;;;;120.33;41.87;;;1.50;99.90;;;;;;4989429;28;20539;-83
2023/01/26 00:37:05;;;;;;;126.37;43.07;;;1.40;99.90;;;;;;5000826;28;20486;-85
2023/01/26 00:43:01;;;;;;;131.53;40.07;;;1.50;99.90;;;;;;5055225;28;21418;-81
2023/01/26 00:45:54;;;;;;;132.03;41.83;;;1.50;99.90;;;;;;5061245;28;20446;-83
2023/01/26 00:51:47;;;;;;;135.30;41.20;;;1.30;99.90;;;;;;5061313;28;20396;-84
2023/01/26 00:57:39;;;;;;;136.57;43.13;;;1.40;99.90;;;;;;5061191;28;20404;-85
2023/01/26 01:01:07;;;;;;;131.87;40.37;;;1.50;99.90;;;;;;5043964;28;20796;-83
2023/01/26 01:03:57;;;;;;;120.83;39.73;;;1.50;99.90;;;;;;5060971;28;20412;-83
2023/01/26 01:09:50;;;;;;;123.87;39.80;;;1.60;99.90;;;;;;5061039;28;20395;-82
2023/01/26 01:19:32;;;;;;;123.67;38.97;;;1.40;99.90;;;;;;5000687;28;20438;-82
2023/01/26 01:22:25;;;;;;;123.10;38.83;;;1.50;99.90;;;;;;5000654;28;20441;-83
2023/01/26 01:35:01;;;;;;;131.83;40.60;;;1.70;99.90;;;;;;5000539;28;20231;-85
2023/01/26 01:37:46;;;;;;;113.53;36.87;;;1.60;99.90;;;;;;4999135;28;20498;-83
2023/01/26 01:43:46;;;;;;;127.93;37.13;;;1.60;99.90;;;;;;5000163;28;20451;-82
2023/01/26 02:06:04;;;;;;;106.17;32.37;;;1.80;99.90;;;;;;5060037;28;20444;-82
2023/01/26 02:08:36;;;;;;;110.87;35.63;;;1.60;99.90;;;;;;5058042;28;20436;-84
2023/01/26 02:11:28;;;;;;;109.97;33.30;;;1.60;99.90;;;;;;5057973;28;20490;-83
2023/01/26 02:14:07;;;;;;;104.73;31.93;;;1.60;99.90;;;;;;5057884;28;20979;-83
2023/01/26 02:17:24;;;;;;;107.33;32.33;;;1.60;99.90;;;;;;5058164;28;20448;-86
2023/01/26 02:20:38;;;;;;;99.83;32.83;;;1.60;99.90;;;;;;5059512;28;20411;-83
2023/01/26 02:33:47;;;;;;;101.13;32.67;;;1.50;99.90;;;;;;4994890;28;20514;-83
2023/01/26 02:39:39;;;;;;;112.20;32.50;;;1.60;99.90;;;;;;4995978;28;20423;-84
2023/01/26 02:42:40;;;;;;;105.67;32.60;;;1.70;99.90;;;;;;4997016;28;20443;-83
2023/01/26 02:45:49;;;;;;;104.03;31.63;;;1.70;99.90;;;;;;4967346;28;20454;-83
2023/01/26 02:58:44;;;;;;;100.00;32.43;;;1.80;99.90;;;;;;4999102;28;20414;-85
2023/01/26 03:04:30;;;;;;;105.47;32.23;;;1.60;99.90;;;;;;5055167;28;20440;-85
2023/01/26 03:07:35;;;;;;;118.67;34.47;;;1.40;99.90;;;;;;5056298;28;20452;-84
2023/01/26 03:17:13;;;;;;;99.97;31.60;;;1.80;99.90;;;;;;5054184;28;20461;-84
2023/01/26 03:31:39;;;;;;;110.20;34.63;;;2.20;99.90;;;;;;5055397;28;20428;-84
2023/01/26 03:38:08;;;;;;;97.53;32.80;;;2.00;99.90;;;;;;5037284;28;20495;-84
2023/01/26 03:57:14;;;;;;;100.33;30.03;;;2.00;99.90;;;;;;5057153;28;20542;-85
2023/01/26 04:09:30;;;;;;;86.57;28.10;;;1.90;99.90;;;;;;5037322;28;20448;-84
2023/01/26 04:12:25;;;;;;;97.43;28.50;;;1.70;99.90;;;;;;5040402;28;20451;-85
2023/01/26 04:39:52;;;;;;;86.30;26.53;;;2.10;99.90;;;;;;5060347;28;20435;-83
2023/01/26 04:53:12;;;;;;;66.27;22.30;;;2.00;99.90;;;;;;5040817;28;20461;-84
2023/01/26 04:59:29;;;;;;;73.13;23.20;;;1.80;99.90;;;;;;5025861;28;20450;-85
2023/01/26 05:02:04;;;;;;;71.77;24.37;;;1.90;99.90;;;;;;5036291;28;20443;-84
2023/01/26 05:05:32;;;;;;;65.53;22.50;;;1.90;99.90;;;;;;5041073;28;20428;-85
2023/01/26 05:14:19;;;;;;;63.63;21.57;;;1.90;99.90;;;;;;5056615;28;20552;-85
2023/01/26 05:29:11;;;;;;;59.37;20.43;;;2.20;99.90;;;;;;5092298;22;20550;-85
2023/01/26 05:31:44;;;;;;;60.97;20.87;;;2.20;99.90;;;;;;5057831;28;20441;-84
2023/01/26 05:34:18;;;;;;;56.67;20.27;;;2.20;99.90;;;;;;5070883;28;20489;-83
2023/01/26 05:36:54;;;;;;;57.57;19.83;;;2.20;99.90;;;;;;5074830;28;20444;-84
2023/01/26 05:39:24;;;;;;;52.40;19.90;;;2.10;99.90;;;;;;5057701;28;20470;-84
2023/01/26 05:41:55;;;;;;;53.03;19.80;;;2.20;99.90;;;;;;5057275;28;20447;-84
2023/01/26 05:44:29;;;;;;;59.50;20.47;;;2.10;99.90;;;;;;5074805;28;20458;-83
2023/01/26 05:47:02;;;;;;;53.17;18.60;;;2.10;99.90;;;;;;5056900;28;20526;-83
2023/01/26 05:49:41;;;;;;;53.77;18.60;;;2.10;99.90;;;;;;5057695;28;20505;-83
2023/01/26 05:52:17;;;;;;;49.97;19.83;;;2.00;99.90;;;;;;5073978;28;20551;-82
2023/01/26 05:54:53;;;;;;;68.93;26.38;;;1.80;99.90;;;;;;5073496;28;20456;-84
2023/01/26 05:57:21;;;;;;;59.40;20.70;;;1.90;99.90;;;;;;5056274;28;20221;-84
2023/01/26 06:00:12;;;;;;;56.20;20.93;;;2.10;99.90;;;;;;5074191;28;21047;-84
2023/01/26 06:11:41;;;;;;;49.50;18.53;;;2.20;99.90;;;;;;5072779;28;20447;-85
2023/01/26 06:31:28;;;;;;;47.57;16.60;;;2.70;99.90;;;;;;5075113;28;20418;-85
2023/01/26 06:41:56;;;;;;;42.13;16.23;;;2.50;99.90;;;;;;5063784;28;20448;-85
2023/01/26 06:45:02;;;;;;;46.17;17.17;;;2.30;99.90;;;;;;5076711;28;20478;-84
2023/01/26 06:57:04;;;;;;;41.50;15.40;;;2.60;99.90;;;;;;5055580;28;20478;-84
2023/01/26 06:59:50;;;;;;;40.13;15.20;;;2.60;99.90;;;;;;5013488;28;20445;-84
2023/01/26 07:02:37;;;;;;;41.97;15.07;;;2.40;99.90;;;;;;5057733;28;20425;-85
2023/01/26 07:29:56;;;;;;;33.63;15.20;;;2.30;99.90;;;;;;4976578;28;20455;-83
2023/01/26 07:33:03;;;;;;;38.43;14.53;;;2.40;99.90;;;;;;4973984;28;20533;-85
2023/01/26 07:39:48;;;;;;;35.80;14.60;;;2.60;99.90;;;;;;5016142;28;20449;-83
2023/01/26 07:51:51;;;;;;;39.37;16.13;;;2.70;99.90;;;;;;5025081;28;20480;-84
2023/01/26 07:55:02;;;;;;;40.90;17.53;;;2.70;99.90;;;;;;5041303;28;20430;-82
2023/01/26 08:17:06;;;;;;;44.33;18.70;;;2.60;99.90;;;;;;5062386;28;20479;-86
2023/01/26 08:25:45;;;;;;;53.27;20.73;;;2.80;99.90;;;;;;5033833;22;20477;-92
2023/01/26 08:28:24;;;;;;;46.00;19.87;;;2.60;99.90;;;;;;5010748;28;20434;-92
2023/01/26 08:30:51;;;;;;;48.77;18.63;;;2.50;99.90;;;;;;5010010;28;20461;-92
2023/01/26 08:33:18;;;;;;;47.93;19.13;;;2.70;99.90;;;;;;5016747;28;20524;-94
2023/01/26 08:35:45;;;;;;;41.07;18.23;;;2.80;99.90;;;;;;5022187;28;20480;-91
2023/01/26 08:38:13;;;;;;;45.90;18.07;;;2.90;99.90;;;;;;5021184;28;20484;-92
2023/01/26 08:40:57;;;;;;;50.73;18.57;;;2.90;99.90;;;;;;5015637;28;20494;-92
2023/01/26 08:43:24;;;;;;;46.27;17.87;;;3.00;99.90;;;;;;5009607;28;20540;-92
2023/01/26 08:45:51;;;;;;;47.10;19.40;;;2.90;99.90;;;;;;5019839;28;20824;-91
2023/01/26 08:48:21;;;;;;;46.33;18.00;;;2.90;99.90;;;;;;5006541;28;20944;-92
2023/01/26 08:50:54;;;;;;;49.00;18.60;;;2.90;99.90;;;;;;5005489;28;20548;-93
2023/01/26 08:53:21;;;;;;;46.07;19.60;;;3.00;99.90;;;;;;5009021;28;20924;-94
2023/01/26 08:55:49;;;;;;;55.17;19.80;;;3.10;99.90;;;;;;4997908;28;20575;-91
2023/01/26 08:58:19;;;;;;;43.67;18.50;;;3.00;99.90;;;;;;4999228;28;20557;-93
2023/01/26 09:00:46;;;;;;;50.70;18.37;;;2.90;99.90;;;;;;5000157;28;20451;-93
2023/01/26 09:03:14;;;;;;;49.07;19.33;;;2.90;99.90;;;;;;4999412;28;20458;-90
2023/01/26 09:05:41;;;;;;;49.37;19.33;;;3.00;99.90;;;;;;5000430;28;20486;-93
2023/01/26 09:08:11;;;;;;;41.53;18.10;;;3.10;99.90;;;;;;5001854;28;20514;-91
2023/01/26 09:10:38;;;;;;;52.67;18.83;;;2.90;99.90;;;;;;5003571;28;20474;-92
2023/01/26 09:13:06;;;;;;;50.20;19.43;;;2.90;99.90;;;;;;5000187;28;20446;-91
2023/01/26 09:15:38;;;;;;;48.93;19.73;;;3.10;99.90;;;;;;5001285;28;20858;-90
2023/01/26 09:18:05;;;;;;;42.53;18.73;;;3.20;99.90;;;;;;5002302;28;20492;-91
2023/01/26 09:20:32;;;;;;;54.40;20.47;;;3.20;99.90;;;;;;4984835;28;20446;-91
2023/01/26 09:22:59;;;;;;;48.70;19.03;;;3.20;99.90;;;;;;4998225;28;20509;-93
2023/01/26 09:25:26;;;;;;;50.77;20.10;;;3.10;99.90;;;;;;5002557;28;20532;-91
2023/01/26 09:27:53;;;;;;;59.60;20.43;;;3.20;99.90;;;;;;5000028;28;20462;-89
2023/01/26 09:30:20;;;;;;;53.87;19.43;;;3.20;99.90;;;;;;5001456;28;20482;-94
2023/01/26 09:32:52;;;;;;;49.27;19.67;;;3.40;99.90;;;;;;5000665;28;20466;-92
2023/01/26 09:35:19;;;;;;;51.10;19.03;;;3.50;99.90;;;;;;5000298;28;20996;-90
2023/01/26 09:37:48;;;;;;;58.60;20.33;;;3.50;99.90;;;;;;4998627;28;20537;-91
2023/01/26 09:40:19;;;;;;;54.57;21.00;;;3.50;99.90;;;;;;5003738;28;20458;-90
2023/01/26 09:42:59;;;;;;;61.47;20.63;;;3.60;99.90;;;;;;5001220;28;20530;-91
2023/01/26 09:45:32;;;;;;;51.30;19.47;;;3.60;99.90;;;;;;5001201;28;20526;-93
2023/01/26 09:48:21;;;;;;;57.70;21.43;;;3.70;99.90;;;;;;5000072;28;20509;-93
2023/01/26 09:50:54;;;;;;;79.15;28.77;;;3.90;99.90;;;;;;5000089;28;20473;-91
2023/01/26 09:53:26;;;;;;;67.17;24.33;;;4.00;99.90;;;;;;4999572;28;20231;-93
2023/01/26 09:55:55;;;;;;;63.47;22.90;;;4.10;99.90;;;;;;4997798;28;20331;-94
2023/01/26 09:58:39;;;;;;;65.53;22.90;;;4.10;99.90;;;;;;4999360;28;20486;-90
2023/01/26 10:01:16;;;;;;;64.13;23.50;;;4.10;99.90;;;;;;5001252;28;20481;-92
2023/01/26 10:03:49;;;;;;;76.47;25.30;;;4.30;99.90;;;;;;5001168;28;20476;-91
2023/01/26 10:06:26;;;;;;;70.63;25.27;;;4.40;99.90;;;;;;5001554;28;20276;-91
2023/01/26 10:08:55;;;;;;;70.47;22.90;;;4.40;99.90;;;;;;5001150;28;20274;-91
2023/01/26 10:11:27;;;;;;;80.73;24.73;;;4.40;99.90;;;;;;5001484;28;20287;-93
2023/01/26 10:13:57;;;;;;;81.27;23.80;;;4.20;99.90;;;;;;4999540;28;20216;-92
2023/01/26 10:16:24;;;;;;;75.90;23.00;;;4.40;99.90;;;;;;5000234;28;20782;-91
2023/01/26 10:18:59;;;;;;;73.57;25.37;;;4.40;99.90;;;;;;5001838;28;20215;-93
2023/01/26 10:21:32;;;;;;;71.77;23.27;;;4.50;99.90;;;;;;4984976;28;20204;-92
2023/01/26 10:24:04;;;;;;;68.33;24.20;;;4.70;99.90;;;;;;4999913;28;20196;-91
2023/01/26 10:26:33;;;;;;;80.47;25.60;;;4.70;99.90;;;;;;5000034;28;20208;-90
2023/01/26 10:29:05;;;;;;;69.47;24.50;;;4.70;99.90;;;;;;5001195;28;20228;-92
2023/01/26 10:31:34;;;;;;;78.00;24.90;;;4.90;99.90;;;;;;5000856;28;20247;-92
2023/01/26 10:34:13;;;;;;;76.30;24.93;;;4.80;99.90;;;;;;4996997;28;20240;-92
2023/01/26 10:36:42;;;;;;;82.20;24.27;;;4.80;99.90;;;;;;4999284;28;20713;-92
2023/01/26 10:39:13;;;;;;;71.00;22.30;;;5.00;99.90;;;;;;4997857;28;20587;-92
2023/01/26 10:41:40;;;;;;;67.13;22.77;;;5.10;99.90;;;;;;4998032;28;20658;-92
2023/01/26 10:47:07;;;;;;;65.63;22.23;;;5.40;99.90;;;;;;4996268;28;20652;-92
2023/01/26 10:49:36;;;;;;;62.47;20.63;;;5.50;99.90;;;;;;4999557;28;20259;-93
2023/01/26 10:52:14;;;;;;;60.27;21.27;;;5.50;99.90;;;;;;4997582;28;20204;-92
2023/01/26 10:54:43;;;;;;;66.73;19.93;;;5.50;99.90;;;;;;4998682;28;20660;-91
2023/01/26 10:57:31;;;;;;;61.20;18.93;;;5.60;99.90;;;;;;5001699;28;20711;-92
2023/01/26 11:00:00;;;;;;;67.17;20.13;;;5.70;99.90;;;;;;5000652;28;20255;-93
2023/01/26 11:02:32;;;;;;;61.40;18.93;;;5.80;99.90;;;;;;5003330;28;20208;-95
2023/01/26 11:05:18;;;;;;;68.90;18.20;;;5.90;99.90;;;;;;4998509;28;20205;-94
2023/01/26 11:07:46;;;;;;;54.80;17.80;;;5.90;99.90;;;;;;4998302;28;20196;-90
2023/01/26 11:10:20;;;;;;;54.20;15.73;;;6.00;99.90;;;;;;5070427;23;20257;-91
2023/01/26 11:12:47;;;;;;;44.37;15.00;;;6.00;99.90;;;;;;5077936;28;20210;-94
2023/01/26 11:15:39;;;;;;;41.77;15.10;;;6.10;99.90;;;;;;5082063;28;20208;-95
2023/01/26 11:18:23;;;;;;;48.17;14.37;;;6.10;99.90;;;;;;5079266;28;20216;-92
2023/01/26 11:20:58;;;;;;;40.93;12.20;;;6.20;99.90;;;;;;5079829;28;20266;-93
2023/01/26 11:23:38;;;;;;;39.23;10.90;;;6.30;99.90;;;;;;5078916;28;20228;-93
2023/01/26 11:26:47;;;;;;;22.60;7.90;;;6.40;99.90;;;;;;5081014;28;20189;-92
2023/01/26 11:29:34;;;;;;;26.37;6.87;;;6.40;99.90;;;;;;5087063;22;20225;-94
2023/01/26 11:32:15;;;;;;;30.27;6.53;;;6.50;99.90;;;;;;5079591;28;20237;-91
2023/01/26 11:34:53;;;;;;;40.40;6.40;;;6.60;99.90;;;;;;5060944;28;20269;-90
2023/01/26 11:37:39;;;;;;;23.30;4.57;;;6.40;99.90;;;;;;5081256;28;20300;-92
2023/01/26 11:40:23;;;;;;;31.10;4.87;;;6.40;99.90;;;;;;5078080;28;20233;-93
2023/01/26 11:43:11;;;;;;;27.73;4.73;;;6.50;99.90;;;;;;5078656;28;20273;-93
2023/01/26 11:45:54;;;;;;;27.33;5.00;;;6.50;99.90;;;;;;5076405;28;20213;-92
2023/01/26 11:54:29;;;;;;;22.60;4.77;;;6.50;99.90;;;;;;5082000;28;20568;-94
2023/01/26 12:00:51;;;;;;;24.93;5.00;;;6.60;99.90;;;;;;5073302;28;20214;-93
2023/01/26 12:03:24;;;;;;;33.47;5.90;;;6.80;99.90;;;;;;5071683;28;20464;-95
2023/01/26 12:05:55;;;;;;;24.97;4.20;;;6.70;99.90;;;;;;5088191;28;20216;-92
2023/01/26 12:08:26;;;;;;;26.50;4.60;;;7.00;99.90;;;;;;5067330;28;20210;-92
2023/01/26 12:33:40;;;;;;;22.97;4.43;;;7.60;99.90;;;;;;5268941;22;20256;-93
2023/01/26 12:36:34;;;;;;;18.13;3.50;;;7.60;99.90;;;;;;5073804;28;20316;-92
2023/01/26 12:39:22;;;;;;;15.90;3.77;;;7.60;99.90;;;;;;5079629;22;20593;-92
2023/01/26 12:42:06;;;;;;;19.70;4.00;;;7.70;99.90;;;;;;5076200;28;20228;-92
2023/01/26 12:44:38;;;;;;;28.03;4.87;;;7.80;99.90;;;;;;5058036;28;20226;-95
2023/01/26 12:47:14;;;;;;;16.63;3.53;;;7.80;99.90;;;;;;5078167;28;20224;-93
2023/01/26 12:49:48;;;;;;;18.33;4.13;;;7.60;99.90;;;;;;5056683;28;20299;-95
2023/01/26 12:52:21;;;;;;;19.63;4.27;;;7.80;99.90;;;;;;5055630;28;20221;-92
2023/01/26 12:54:57;;;;;;;21.40;3.97;;;7.80;99.90;;;;;;5057274;28;20233;-89
2023/01/26 12:57:30;;;;;;;16.40;4.10;;;7.80;99.90;;;;;;5046291;28;20226;-91
2023/01/26 13:00:08;;;;;;;13.10;3.53;;;7.80;99.90;;;;;;5053591;28;20318;-92
2023/01/26 13:02:37;;;;;;;17.80;3.47;;;7.90;99.90;;;;;;5056431;28;20563;-93
2023/01/26 13:05:25;;;;;;;15.90;3.83;;;7.90;99.90;;;;;;5044224;28;20509;-92
2023/01/26 13:07:53;;;;;;;14.60;3.40;;;8.00;99.90;;;;;;5044800;28;20645;-95
2023/01/26 13:10:44;;;;;;;18.63;4.13;;;7.90;99.90;;;;;;5055685;28;20229;-90
2023/01/26 13:13:29;;;;;;;16.77;3.37;;;7.90;99.90;;;;;;5056762;28;20199;-90
2023/01/26 13:16:33;;;;;;;16.97;4.20;;;7.80;99.90;;;;;;5038530;28;20199;-90
2023/01/26 13:19:01;;;;;;;14.13;3.30;;;7.90;99.90;;;;;;4979650;28;20223;-91
2023/01/26 13:21:44;;;;;;;16.93;3.40;;;7.90;99.90;;;;;;5035201;28;20200;-91
2023/01/26 13:24:42;;;;;;;14.50;3.40;;;7.90;99.90;;;;;;5056409;28;20234;-87
2023/01/26 13:27:32;;;;;;;13.23;2.93;;;7.80;99.90;;;;;;5056296;28;20206;-89
2023/01/26 13:29:59;;;;;;;13.77;2.67;;;7.70;99.90;;;;;;5044303;28;20314;-90
2023/01/26 13:32:54;;;;;;;18.07;3.77;;;7.60;99.90;;;;;;5049969;28;20286;-90
2023/01/26 13:35:23;;;;;;;14.03;3.13;;;7.60;99.90;;;;;;5057858;28;20206;-91
2023/01/26 13:37:58;;;;;;;11.27;2.60;;;7.70;99.90;;;;;;5056840;28;20301;-91
2023/01/26 13:40:30;;;;;;;11.83;2.67;;;7.80;99.90;;;;;;5055363;28;20232;-89
2023/01/26 13:43:04;;;;;;;10.90;3.07;;;7.90;99.90;;;;;;5056879;28;20210;-89
2023/01/26 13:45:53;;;;;;;15.73;2.50;;;8.00;99.90;;;;;;5057201;28;20614;-87
2023/01/26 13:48:33;;;;;;;8.33;2.87;;;8.00;99.90;;;;;;5039241;28;20301;-88
2023/01/26 13:51:04;;;;;;;20.70;3.13;;;7.80;99.90;;;;;;5036356;28;20203;-88
2023/01/26 13:53:40;;;;;;;13.07;2.63;;;7.80;99.90;;;;;;5049839;28;20213;-88
2023/01/26 13:56:21;;;;;;;14.43;3.40;;;7.80;99.90;;;;;;5034330;28;20203;-88
2023/01/26 13:58:49;;;;;;;23.00;3.93;;;8.10;99.90;;;;;;5042528;28;20220;-87
2023/01/26 14:01:17;;;;;;;16.07;2.63;;;8.00;99.90;;;;;;5049943;28;20199;-91
2023/01/26 14:03:45;;;;;;;22.37;3.43;;;7.90;99.90;;;;;;5048779;28;20203;-91
2023/01/26 14:06:15;;;;;;;19.83;3.47;;;7.80;99.90;;;;;;5053397;28;20210;-90
2023/01/26 14:08:49;;;;;;;9.97;2.77;;;7.90;99.90;;;;;;5050288;28;20298;-89
2023/01/26 14:11:20;;;;;;;11.97;3.23;;;8.00;99.90;;;;;;5047577;28;20199;-88
2023/01/26 14:13:51;;;;;;;17.67;3.90;;;8.00;99.90;;;;;;5040488;28;20344;-90
2023/01/26 14:16:25;;;;;;;10.57;2.90;;;8.00;99.90;;;;;;5035553;28;20207;-88
2023/01/26 14:18:52;;;;;;;22.97;3.83;;;8.10;99.90;;;;;;5035094;28;20564;-90
2023/01/26 14:21:22;;;;;;;13.87;3.07;;;8.00;99.90;;;;;;5034834;28;20211;-90
2023/01/26 14:23:56;;;;;;;19.23;3.07;;;8.10;99.90;;;;;;5045638;28;20203;-90
2023/01/26 14:26:31;;;;;;;16.50;3.20;;;7.80;99.90;;;;;;5050100;28;20285;-89
2023/01/26 14:29:01;;;;;;;17.53;3.40;;;7.80;99.90;;;;;;5047398;28;20601;-91
2023/01/26 14:31:29;;;;;;;23.87;3.33;;;7.80;99.90;;;;;;5018036;28;20207;-91
2023/01/26 14:33:58;;;;;;;14.23;3.03;;;7.90;99.90;;;;;;5035420;28;20199;-92
2023/01/26 14:36:27;;;;;;;13.17;2.43;;;7.70;99.90;;;;;;5042318;28;20206;-88
2023/01/26 14:38:56;;;;;;;14.73;3.00;;;7.80;99.90;;;;;;5041300;28;20317;-91
2023/01/26 14:41:27;;;;;;;15.03;3.70;;;7.80;99.90;;;;;;5058221;28;20205;-90
2023/01/26 14:43:56;;;;;;;13.87;3.00;;;7.60;99.90;;;;;;5047179;28;20276;-91
2023/01/26 14:46:28;;;;;;;14.80;2.93;;;7.80;99.90;;;;;;5047712;28;20213;-90
2023/01/26 14:48:59;;;;;;;15.27;3.50;;;7.80;99.90;;;;;;5046964;28;20234;-89
2023/01/26 14:51:28;;;;;;;11.93;2.63;;;8.00;99.90;;;;;;5048858;28;20213;-90
2023/01/26 14:53:59;;;;;;;16.00;3.13;;;8.00;99.90;;;;;;5057627;28;20247;-89
2023/01/26 14:56:33;;;;;;;16.13;2.97;;;7.80;99.90;;;;;;5044234;28;20195;-88
2023/01/26 14:59:01;;;;;;;17.77;3.17;;;8.10;99.90;;;;;;5120603;23;20241;-87
2023/01/26 15:01:30;;;;;;;13.07;2.77;;;8.20;99.90;;;;;;5077560;28;20522;-89
2023/01/26 15:04:15;;;;;;;17.90;2.90;;;8.10;99.90;;;;;;5095643;28;20197;-89
2023/01/26 15:06:42;;;;;;;15.10;2.93;;;8.10;99.90;;;;;;5095912;28;20221;-89
2023/01/26 15:09:22;;;;;;;17.17;3.07;;;7.90;99.90;;;;;;5077914;28;20677;-90
2023/01/26 15:14:47;;;;;;;11.27;2.50;;;8.10;99.90;;;;;;5051238;28;20238;-90
2023/01/26 15:17:28;;;;;;;17.17;3.10;;;8.10;99.90;;;;;;5067354;28;20587;-89
2023/01/26 15:19:55;;;;;;;21.13;3.65;;;8.10;99.90;;;;;;5082172;28;20446;-89
2023/01/26 15:22:23;;;;;;;11.40;2.80;;;8.20;99.90;;;;;;5064140;28;20217;-90
2023/01/26 15:25:20;;;;;;;14.37;2.93;;;8.10;99.90;;;;;;5061151;28;20233;-90
2023/01/26 15:27:53;;;;;;;12.30;2.63;;;7.90;99.90;;;;;;5058744;28;20300;-91
2023/01/26 15:30:25;;;;;;;15.67;3.27;;;7.80;99.90;;;;;;5061678;28;20218;-90
2023/01/26 15:32:53;;;;;;;12.17;2.80;;;7.90;99.90;;;;;;5077494;28;20595;-90
2023/01/26 15:35:27;;;;;;;17.50;3.20;;;7.80;99.90;;;;;;5074275;28;20216;-90
2023/01/26 15:38:02;;;;;;;9.00;2.50;;;7.80;99.90;;;;;;5073630;28;20232;-92
2023/01/26 15:40:32;;;;;;;11.77;2.50;;;7.70;99.90;;;;;;5016626;28;20274;-93
2023/01/26 15:43:10;;;;;;;10.70;2.87;;;7.60;99.90;;;;;;5057809;28;20201;-91
2023/01/26 15:45:38;;;;;;;10.03;2.80;;;7.80;99.90;;;;;;5027946;28;20209;-90
2023/01/26 15:48:05;;;;;;;17.73;3.47;;;7.70;99.90;;;;;;5055596;28;20429;-90
2023/01/26 15:50:32;;;;;;;9.70;2.90;;;7.90;99.90;;;;;;5055577;28;20194;-90
2023/01/26 15:52:59;;;;;;;13.00;3.10;;;7.70;99.90;;;;;;5070204;28;20550;-89
2023/01/26 15:55:29;;;;;;;9.67;2.77;;;7.60;99.90;;;;;;5073954;28;20293;-91
2023/01/26 15:57:58;;;;;;;14.83;2.80;;;7.70;99.90;;;;;;5059854;28;20218;-91
2023/01/26 16:00:25;;;;;;;9.53;2.73;;;7.60;99.90;;;;;;5073705;28;20714;-92
2023/01/26 16:02:54;;;;;;;10.37;3.30;;;7.60;99.90;;;;;;5074191;28;20610;-93
2023/01/26 16:05:24;;;;;;;10.67;3.07;;;7.60;99.90;;;;;;5073616;28;20214;-92
2023/01/26 16:08:01;;;;;;;10.27;2.67;;;7.50;99.90;;;;;;5059192;28;20211;-91
2023/01/26 16:10:30;;;;;;;15.30;3.30;;;7.50;99.90;;;;;;5066432;28;20198;-92
2023/01/26 16:13:01;;;;;;;13.00;3.07;;;7.60;99.90;;;;;;5060858;28;20646;-93
2023/01/26 16:15:38;;;;;;;8.50;2.17;;;7.60;99.90;;;;;;5061534;28;20213;-95
2023/01/26 16:18:12;;;;;;;12.37;2.80;;;7.50;99.90;;;;;;5070962;28;20225;-94
2023/01/26 16:20:41;;;;;;;13.67;2.73;;;7.40;99.90;;;;;;5081858;28;20669;-93
2023/01/26 16:23:18;;;;;;;15.13;2.90;;;7.40;99.90;;;;;;5082171;28;20247;-92
2023/01/26 16:25:45;;;;;;;10.33;3.27;;;7.50;99.90;;;;;;5064115;28;20210;-95
2023/01/26 16:28:16;;;;;;;9.63;2.90;;;7.40;99.90;;;;;;5049120;28;20223;-92
2023/01/26 16:30:46;;;;;;;10.90;2.97;;;7.30;99.90;;;;;;5058141;28;20225;-93
2023/01/26 16:33:20;;;;;;;10.07;2.50;;;7.30;99.90;;;;;;5082804;28;20200;-92
2023/01/26 16:35:50;;;;;;;14.60;3.40;;;7.30;99.90;;;;;;5072229;28;20207;-92
2023/01/26 16:38:25;;;;;;;10.53;2.93;;;7.30;99.90;;;;;;5063211;28;20206;-94
2023/01/26 16:41:15;;;;;;;12.90;2.83;;;7.30;99.90;;;;;;5069702;28;20202;-93
2023/01/26 17:00:43;;;;;;;10.77;2.37;;;7.20;99.90;;;;;;5064701;28;20297;-94
2023/01/26 17:36:30;;;;;;;10.13;2.93;;;7.00;99.90;;;;;;5011778;28;20305;-93
2023/01/26 17:39:17;;;;;;;17.50;2.60;;;7.10;99.90;;;;;;5012708;28;20237;-92
2023/01/26 17:45:10;;;;;;;10.63;2.40;;;7.00;99.90;;;;;;5015856;28;20235;-91
2023/01/26 17:47:38;;;;;;;14.70;2.90;;;7.00;99.90;;;;;;5017193;28;20217;-94
2023/01/26 17:50:09;;;;;;;10.03;2.40;;;7.00;99.90;;;;;;5037401;28;20259;-95
2023/01/26 17:52:38;;;;;;;12.40;2.83;;;7.10;99.90;;;;;;5064990;28;20211;-95
2023/01/26 17:55:09;;;;;;;8.23;2.23;;;7.20;99.90;;;;;;5060920;28;20207;-95
2023/01/26 17:57:36;;;;;;;5.97;2.00;;;7.20;99.90;;;;;;5057199;28;20243;-93
2023/01/26 18:00:08;;;;;;;5.57;2.53;;;7.10;99.90;;;;;;5057257;28;20230;-93
2023/01/26 18:02:37;;;;;;;9.17;2.43;;;7.20;99.90;;;;;;5061363;28;20229;-93
2023/01/26 18:05:07;;;;;;;8.90;2.50;;;7.20;99.90;;;;;;5049850;28;20203;-95
2023/01/26 18:07:37;;;;;;;12.07;2.67;;;7.20;99.90;;;;;;5056313;28;20251;-93
2023/01/26 18:10:08;;;;;;;8.77;2.73;;;7.20;99.90;;;;;;5049302;28;20222;-93
2023/01/26 18:12:36;;;;;;;9.20;2.20;;;7.10;99.90;;;;;;5051689;28;20230;-93
2023/01/26 18:15:05;;;;;;;12.23;3.27;;;7.10;99.90;;;;;;5046624;28;20635;-94
2023/01/26 18:17:32;;;;;;;7.90;2.60;;;7.10;99.90;;;;;;5050389;28;20249;-91
2023/01/26 18:19:59;;;;;;;5.47;2.23;;;7.10;99.90;;;;;;5054369;28;20229;-91
2023/01/26 18:22:27;;;;;;;6.93;2.63;;;7.20;99.90;;;;;;5053566;28;20203;-93
2023/01/26 18:24:57;;;;;;;10.20;3.27;;;7.10;99.90;;;;;;5046114;28;20230;-92
2023/01/26 18:27:36;;;;;;;7.97;2.47;;;6.90;99.90;;;;;;5054377;28;20302;-92
2023/01/26 18:30:05;;;;;;;4.40;2.23;;;7.00;99.90;;;;;;5038924;28;20253;-92
2023/01/26 18:38:46;;;;;;;5.60;2.40;;;7.00;99.90;;;;;;5067343;22;20214;-94
2023/01/26 18:57:49;;;;;;;3.93;1.97;;;7.00;99.90;;;;;;5097527;28;20246;-94
2023/01/26 19:07:57;;;;;;;7.50;2.20;;;7.20;99.90;;;;;;5095229;28;20178;-93
2023/01/26 19:30:10;;;;;;;11.10;2.60;;;7.10;99.90;;;;;;5101243;22;20255;-94
2023/01/26 19:33:22;;;;;;;10.20;3.10;;;7.00;99.90;;;;;;5088540;28;20206;-95
2023/01/26 19:38:38;;;;;;;11.83;3.00;;;7.10;99.90;;;;;;5075189;28;20311;-93
2023/01/26 19:41:06;;;;;;;13.47;3.60;;;6.90;99.90;;;;;;5059734;28;20200;-95
2023/01/26 19:43:33;;;;;;;12.73;2.83;;;7.00;99.90;;;;;;5041648;28;20211;-94
2023/01/26 19:46:04;;;;;;;9.57;3.97;;;7.00;99.90;;;;;;5039165;28;20286;-94
2023/01/26 19:48:33;;;;;;;6.63;2.67;;;7.10;99.90;;;;;;5041211;28;20215;-92
2023/01/26 19:51:03;;;;;;;4.93;2.50;;;6.90;99.90;;;;;;5066299;28;20209;-92
2023/01/26 19:53:31;;;;;;;10.43;3.03;;;6.90;99.90;;;;;;5062804;28;20202;-92
2023/01/26 19:56:05;;;;;;;13.97;3.00;;;6.90;99.90;;;;;;5060226;28;20207;-93
2023/01/26 19:59:00;;;;;;;10.90;2.90;;;6.90;99.90;;;;;;5061789;28;20226;-92
2023/01/26 20:01:29;;;;;;;8.93;2.40;;;7.00;99.90;;;;;;5079709;28;20210;-93
2023/01/26 20:04:00;;;;;;;10.30;2.80;;;7.00;99.90;;;;;;5081618;28;20267;-91
2023/01/26 20:06:33;;;;;;;7.00;2.20;;;7.00;99.90;;;;;;5073763;28;20226;-94
2023/01/26 20:09:04;;;;;;;11.20;2.70;;;7.00;99.90;;;;;;5061429;28;20306;-94
2023/01/26 20:11:44;;;;;;;9.53;2.70;;;6.90;99.90;;;;;;5072769;28;20214;-93
2023/01/26 20:14:12;;;;;;;8.10;2.57;;;7.00;99.90;;;;;;5064296;28;20650;-92
2023/01/26 20:16:39;;;;;;;8.27;2.87;;;7.10;99.90;;;;;;5067739;28;20206;-93
2023/01/26 20:19:13;;;;;;;9.03;2.40;;;7.00;99.90;;;;;;5060356;28;20229;-93
2023/01/26 20:21:40;;;;;;;14.80;2.50;;;6.90;99.90;;;;;;5058991;28;20202;-94
2023/01/26 20:24:10;;;;;;;13.07;3.07;;;6.90;99.90;;;;;;5054719;28;20201;-94
2023/01/26 20:26:37;;;;;;;12.00;2.90;;;6.90;99.90;;;;;;5054088;28;20251;-95
2023/01/26 20:29:04;;;;;;;11.40;2.87;;;6.70;99.90;;;;;;5054580;28;20412;-92
2023/01/26 20:31:32;;;;;;;10.07;3.17;;;6.70;99.90;;;;;;5047558;28;20217;-92
2023/01/26 20:34:00;;;;;;;13.83;3.10;;;6.70;99.90;;;;;;5046566;28;20265;-93
2023/01/26 20:36:29;;;;;;;10.23;2.47;;;6.90;99.90;;;;;;5059592;28;20221;-92
2023/01/26 20:38:56;;;;;;;6.23;2.30;;;6.70;99.90;;;;;;5059023;28;20684;-93
2023/01/26 20:41:26;;;;;;;9.73;2.50;;;6.70;99.90;;;;;;5053228;28;20222;-94
2023/01/26 20:44:04;;;;;;;7.50;2.00;;;6.60;99.90;;;;;;5060180;28;20210;-94
2023/01/26 20:46:37;;;;;;;12.30;2.63;;;6.60;99.90;;;;;;5064184;28;20214;-92
2023/01/26 20:49:10;;;;;;;8.23;2.63;;;6.70;99.90;;;;;;5051017;22;20631;-95
2023/01/26 20:51:45;;;;;;;12.50;3.20;;;6.70;99.90;;;;;;5043475;28;20214;-94
2023/01/26 20:54:17;;;;;;;4.97;2.33;;;6.90;99.90;;;;;;5042529;28;20211;-92
2023/01/26 20:56:45;;;;;;;4.37;1.93;;;6.90;99.90;;;;;;5042548;28;20266;-93
2023/01/26 20:59:13;;;;;;;8.47;2.67;;;6.90;99.90;;;;;;5052462;28;20312;-93
2023/01/26 21:01:41;;;;;;;11.27;3.53;;;6.80;99.90;;;;;;5066050;28;20218;-93
2023/01/26 21:04:10;;;;;;;6.23;2.20;;;6.80;99.90;;;;;;5065569;28;20217;-92
2023/01/26 21:06:40;;;;;;;10.67;2.40;;;6.80;99.90;;;;;;5074038;28;20210;-91